2006/11/19 日曜日

成田に行って来ました。(24)

AIB_A380今日は、Technical Route Provingで飛来するA380を撮りに行って来ました。

飛来時は、
RJAA 190300Z 01007KT 340V050 8000 -RA BKN030 BKN060 12/08 Q1023 BECMG 4000 -RA BR RMK 5SC030 7SC060 A3022
という生憎の天気でしたが、何とか撮ることができました。

今日の成田はお祭り騒ぎでした。

◇敏郎◇が成田に着いたのは8時少し前、まだA380に到着まで4時間もあるというのに、展望デッキはマニアでいっぱい。既に撮影用の「穴」は全て埋まっていました。デッキのオープン時は「いい穴」を目指して、皆さんダッシュしたそうです。◇敏郎◇は完全に出遅れています。皆さんは、時折小雨が降り肌寒いなかでじっと待っています。◇敏郎◇は、取り敢えず撮影場所を確保して室内で「温っと」していました。
到着時間が近づくにつれて、一般の見学者や空港関係者、報道関係等、どんどん人が増えていきます。流石に世界最大の旅客機は話題性満点なんですね。
到着前には上空に報道関係のヘリが3機、RWYの向こう側にも、エプロンで作業している人達もちょっと手を休めて、という状態でした。
成田でこんなに多くの人達が1機の飛行機に注目している姿を見たのは初めてです。

当事者のA380は11時10分頃に成田アプローチにコンタクト。コールサインは予定通りのAIB202。「ちょっと早いのでは。」と思っていたら、11時45分の着陸をリクエストしてVENUSでホールディング。結果的には、11時49分にRWY34Lに着陸、A3からA、K、TNとタキシングして予定通りSpot 45に入りました。

今度、A380は見るのは何時になるのかな??
スケジュールが遅れ気味で発注をキャンセルしたところもあるようですから。

Tags: , ,

  • クロスバイクで成田へ
  • 二度目の飛来。
  • 成田に行って来ました。(25)
  • 海外LCC (その3)
  • 海外LCC (その2)
  • 海外LCC (その1)
  • SKYTEAM塗装機
  • 国内LCC
  • HondaJet
  • special marking
  • チャーターやエキストラ
  • こんな塗装のジャンボが見れるとは。
  • ジャンボは貨物機??
  • 少なくなったジャンボ
  • 新聞記者にもマニアがいますね。
  • 成田が30周年。
  • 今日の飛来機
  • デリバリィフライトルート。
  • また1機、B742が日本の空を離れます。
  • 気になるフライト(48)
  • 昨日の羽田。
  • 気になるフライト(46)
  • 気になるフライト(45)
  • 今日、日本へ帰ります。
  • 香港からです。
  • Filed under: Airport — ◇敏郎◇ @ 17:54:50

    コメント (0) »

    この記事にはまだコメントがついていません。

    コメント RSS トラックバック URL

    コメントをどうぞ

    HTML convert time: 0.272 sec. Powered by WordPress ME